Terminal Aerodrome Forecast
Issued by NWS

Home | Current Version | Previous Version | Text Only | Print | Product List | Glossary On
Versions: 1 2 3 4 5 6 7 8 9 10 11 12 13 14 15
000
FTUS45 KGGW 011700
TAFSDY
TAF
KSDY 011722Z 0118/0218 07010KT P6SM FEW100 FEW250
     FM020300 VRB06KT P6SM VCTS BKN080CB
     FM020900 VRB03KT P6SM SKC
      AMD LTD TO CLD VIS AND WIND=

USA.gov is the U.S. government's official web portal to all federal, state and local government web resources and services.